Altamahaw, North Carolina
Current Conditions -  °F | °C
As of 6:54 AM on Thursday 23 Oct 2014 (Local Time) from KBUY Reporting Station
Clear Clear  
Wind Chill: 44°   Ceiling: Unl
Heat Index: 48°   Visibility: 10mi
Dew Point: 38°   Wind: 8mph
Humidity: 68%   Direction: 290°WNW
Pressure: 30.03"   Gusts: NA
Location:  36.18°N, 79.51°W
Report Text: KBUY 231054Z AUTO 29007KT 10SM CLR 09/03 A3003 RMK AO2 SLP168 T00890033
Loading
Personal Weather Stations






























Interactive Weather Map
Tropical Storm Tracking
New forecast layout! Learn more

10-Day Weather Forecast

Advertisements
Track Severe Weather on mobile